Time;durP1;ratioP1;P1;durP2;ratioP2;P2;SDS_P1;SDS_P2;PMS_P1;PMS_P2;Temp;Humidity;BMP_temperature;BMP_pressure;BME280_temperature;BME280_humidity;BME280_pressure;Samples;Min_cycle;Max_cycle;Signal;HPM_P1;HPM_P2
2023/04/29 00:01:11;;;;;;;1.48;1.38;;;;;;;6.68;86.29;148983.44;5088033;28;20401;-63
2023/04/29 00:03:37;;;;;;;2.10;1.60;;;;;;;6.83;85.88;149020.47;5091881;28;20289;-63
2023/04/29 00:06:02;;;;;;;1.85;1.75;;;;;;;6.76;85.62;149001.31;5102647;28;20035;-62
2023/04/29 00:08:28;;;;;;;1.73;1.45;;;;;;;6.64;85.57;148971.88;5084388;28;20038;-63
2023/04/29 00:10:54;;;;;;;1.63;1.52;;;;;;;6.70;85.31;148987.25;5082469;28;20352;-63
2023/04/29 00:13:20;;;;;;;1.42;1.23;;;;;;;6.70;84.91;148988.53;5097415;28;20016;-63
2023/04/29 00:15:45;;;;;;;2.00;1.30;;;;;;;6.69;84.89;148985.94;5091566;28;20059;-63
2023/04/29 00:18:12;;;;;;;1.52;1.40;;;;;;;6.66;85.39;148978.28;5087900;28;20028;-63
2023/04/29 00:20:39;;;;;;;1.85;1.50;;;;;;;6.63;85.60;148969.38;5100999;28;20024;-64
2023/04/29 00:23:05;;;;;;;1.52;1.40;;;;;;;6.69;85.68;148984.69;5082084;28;20033;-64
2023/04/29 00:25:31;;;;;;;1.63;1.52;;;;;;;6.68;85.62;148983.44;5099148;28;20103;-65
2023/04/29 00:28:00;;;;;;;1.30;1.20;;;;;;;6.78;85.63;149006.41;5073686;28;20059;-65
2023/04/29 00:30:30;;;;;;;1.60;1.50;;;;;;;6.64;85.24;148971.88;5102224;28;20047;-65
2023/04/29 00:32:55;;;;;;;1.77;1.60;;;;;;;6.62;85.53;148968.06;5102400;28;20073;-65
2023/04/29 00:35:22;;;;;;;1.45;1.30;;;;;;;6.63;85.64;148969.38;5102078;28;20031;-64
2023/04/29 00:37:47;;;;;;;1.30;1.20;;;;;;;6.65;85.08;148974.44;5083134;28;20036;-65
2023/04/29 00:40:14;;;;;;;2.25;1.60;;;;;;;6.71;85.63;148991.09;5096258;28;20031;-65
2023/04/29 00:42:40;;;;;;;1.77;1.67;;;;;;;6.76;86.37;149002.59;5092590;28;20029;-64
2023/04/29 00:45:07;;;;;;;1.30;1.20;;;;;;;6.70;86.50;148987.25;5087714;28;20030;-65
2023/04/29 00:47:32;;;;;;;1.52;1.33;;;;;;;6.74;85.54;148997.44;5101856;28;20205;-64
2023/04/29 00:49:58;;;;;;;1.40;1.30;;;;;;;6.74;85.19;148997.44;5081817;28;20036;-65
2023/04/29 00:52:26;;;;;;;2.55;1.48;;;;;;;6.70;85.34;148987.25;5097433;28;20028;-65
2023/04/29 00:54:51;;;;;;;1.20;1.10;;;;;;;6.72;84.79;148993.63;5090912;28;20059;-65
2023/04/29 00:57:18;;;;;;;1.45;1.00;;;;;;;6.52;85.67;148942.50;5088186;28;20066;-65
2023/04/29 00:59:45;;;;;;;0.80;0.80;;;;;;;6.21;84.53;148865.78;5100289;28;20044;-65
2023/04/29 01:02:10;;;;;;;1.15;0.88;;;;;;;6.38;85.69;148907.97;5081847;28;20045;-65
2023/04/29 01:04:36;;;;;;;0.98;0.90;;;;;;;6.31;85.86;148891.34;5098822;28;20094;-65
2023/04/29 01:07:14;;;;;;;1.27;0.93;;;;;;;6.16;85.27;148853.03;5101439;28;20066;-66
2023/04/29 01:09:49;;;;;;;2.38;0.90;;;;;;;6.38;85.26;148907.97;5092252;28;20028;-65
2023/04/29 01:12:35;;;;;;;1.10;1.00;;;;;;;6.29;85.23;148885.00;5090492;28;20027;-65
2023/04/29 01:15:24;;;;;;;1.20;1.10;;;;;;;6.32;85.55;148892.66;5083652;28;20095;-65
2023/04/29 01:17:55;;;;;;;1.50;1.40;;;;;;;6.43;85.74;148919.47;5087565;28;20035;-66
2023/04/29 01:20:22;;;;;;;1.30;1.20;;;;;;;6.37;86.25;148905.41;5105538;28;20305;-66
2023/04/29 01:22:48;;;;;;;1.42;1.33;;;;;;;6.43;86.44;148919.47;5086475;28;20116;-66
2023/04/29 01:25:13;;;;;;;2.40;1.30;;;;;;;6.46;86.46;148927.16;5099107;28;20068;-66
2023/04/29 01:27:56;;;;;;;1.50;1.40;;;;;;;6.56;86.63;148952.72;5096245;28;20032;-64
2023/04/29 01:30:48;;;;;;;1.80;1.70;;;;;;;6.58;86.48;148957.81;5085065;28;20024;-66
2023/04/29 01:33:29;;;;;;;2.20;1.67;;;;;;;6.38;85.88;148909.28;5103959;28;20024;-65
2023/04/29 01:36:21;;;;;;;2.28;1.65;;;;;;;6.53;86.82;148945.06;5102275;28;20043;-65
2023/04/29 01:38:57;;;;;;;2.30;2.10;;;;;;;6.45;86.50;148925.88;5086522;28;20217;-66
2023/04/29 01:41:38;;;;;;;3.25;2.60;;;;;;;6.59;85.81;148960.38;5104972;28;20091;-66
2023/04/29 01:44:07;;;;;;;3.47;3.17;;;;;;;6.51;85.87;148939.94;5084816;28;20480;-65
2023/04/29 01:46:34;;;;;;;3.40;3.10;;;;;;;6.65;85.67;148975.72;5102878;28;20071;-66
2023/04/29 01:48:59;;;;;;;3.63;2.83;;;;;;;6.64;85.92;148973.19;5093152;28;20052;-66
2023/04/29 01:51:27;;;;;;;3.80;2.83;;;;;;;6.70;86.18;148988.53;5091522;28;20039;-66
2023/04/29 01:53:52;;;;;;;2.45;2.25;;;;;;;6.68;86.13;148982.13;5102495;28;20077;-66
2023/04/29 01:56:18;;;;;;;2.85;2.33;;;;;;;6.56;86.95;148954.00;5084543;28;20024;-65
2023/04/29 01:58:44;;;;;;;2.97;1.70;;;;;;;6.60;85.94;148962.97;5102379;28;20028;-66
2023/04/29 02:01:10;;;;;;;2.60;1.50;;;;;;;6.53;85.42;148946.31;5091441;28;20288;-65
2023/04/29 02:03:36;;;;;;;2.78;1.30;;;;;;;6.42;85.23;148916.94;5092515;28;20028;-67
2023/04/29 02:06:01;;;;;;;1.75;1.63;;;;;;;6.50;85.47;148937.34;5104677;28;20032;-66
2023/04/29 02:08:27;;;;;;;2.45;1.30;;;;;;;6.45;84.80;148925.88;5104416;28;20096;-66
2023/04/29 02:10:58;;;;;;;2.38;1.38;;;;;;;6.36;85.02;148902.88;5104469;28;20078;-64
2023/04/29 02:13:23;;;;;;;1.52;1.30;;;;;;;6.39;85.38;148911.81;5092492;28;20253;-65
2023/04/29 02:15:49;;;;;;;1.58;1.40;;;;;;;6.48;85.04;148932.25;5103935;28;20317;-65
2023/04/29 02:18:15;;;;;;;1.98;1.65;;;;;;;6.48;85.50;148932.25;5104284;28;20067;-66
2023/04/29 02:20:41;;;;;;;1.95;1.45;;;;;;;6.55;85.10;148951.41;5103577;28;20273;-66
2023/04/29 02:23:07;;;;;;;1.80;1.10;;;;;;;6.30;84.69;148887.50;5084104;28;20024;-67
2023/04/29 02:25:33;;;;;;;1.60;1.30;;;;;;;6.23;85.16;148870.94;5100093;28;20024;-66
2023/04/29 02:27:59;;;;;;;2.05;1.48;;;;;;;6.30;85.57;148887.50;5104119;28;20051;-66
2023/04/29 02:30:24;;;;;;;2.10;1.60;;;;;;;6.19;85.58;148861.97;5104012;28;20039;-66
2023/04/29 02:32:50;;;;;;;1.33;1.15;;;;;;;6.04;86.10;148823.63;5104015;28;20035;-66
2023/04/29 02:35:16;;;;;;;1.23;1.13;;;;;;;6.20;85.67;148864.53;5103863;28;20028;-66
2023/04/29 02:37:41;;;;;;;1.60;1.27;;;;;;;6.22;85.60;148868.34;5086438;28;20051;-65
2023/04/29 02:40:07;;;;;;;4.38;2.00;;;;;;;6.15;86.17;148850.47;5095906;28;20252;-65
2023/04/29 02:42:33;;;;;;;1.65;1.27;;;;;;;6.26;86.47;148878.59;5096120;28;20032;-65
2023/04/29 02:44:59;;;;;;;2.42;1.30;;;;;;;6.34;86.19;148899.03;5088428;28;20257;-65
2023/04/29 02:47:25;;;;;;;1.77;1.50;;;;;;;6.33;85.29;148896.47;5103844;28;20030;-65
2023/04/29 02:49:50;;;;;;;1.30;1.20;;;;;;;6.20;85.76;148864.53;5085220;28;20017;-65
2023/04/29 02:52:16;;;;;;;1.67;1.50;;;;;;;6.21;85.40;148865.78;5078895;28;20051;-65
2023/04/29 02:54:42;;;;;;;1.50;1.40;;;;;;;6.22;85.51;148868.34;5094855;28;20029;-65
2023/04/29 02:57:08;;;;;;;1.25;1.15;;;;;;;6.04;84.91;148823.63;5087117;28;20028;-65
2023/04/29 02:59:33;;;;;;;1.27;1.17;;;;;;;6.14;84.15;148847.91;5103587;28;20089;-64
2023/04/29 03:02:00;;;;;;;2.25;1.10;;;;;;;6.05;85.42;148826.19;5083881;28;20179;-65
2023/04/29 03:04:27;;;;;;;3.78;1.15;;;;;;;6.09;85.63;148836.41;5079614;28;20093;-66
2023/04/29 03:06:55;;;;;;;0.90;0.90;;;;;;;6.11;85.60;148840.25;5103498;28;20100;-66
2023/04/29 03:09:22;;;;;;;3.13;1.33;;;;;;;6.04;85.09;148823.63;5103155;28;20035;-67
2023/04/29 03:11:48;;;;;;;1.95;1.20;;;;;;;5.97;85.25;148807.03;5102426;28;20024;-66
2023/04/29 03:14:14;;;;;;;1.42;1.33;;;;;;;5.93;84.66;148795.44;5083252;28;20020;-67
2023/04/29 03:16:39;;;;;;;1.73;1.05;;;;;;;6.08;85.50;148832.59;5099895;28;20031;-65
2023/04/29 03:19:05;;;;;;;2.15;1.08;;;;;;;6.04;85.34;148824.94;5091841;28;20224;-66
2023/04/29 03:21:31;;;;;;;1.70;1.05;;;;;;;6.07;85.53;148831.31;5090708;28;20248;-67
2023/04/29 03:23:57;;;;;;;1.30;1.15;;;;;;;6.09;85.30;148835.16;5101105;28;20248;-67
2023/04/29 03:26:23;;;;;;;1.77;1.20;;;;;;;5.97;83.77;148807.03;5064750;28;20028;-66
2023/04/29 03:28:49;;;;;;;1.08;1.00;;;;;;;6.02;84.14;148818.53;5100424;28;20028;-65
2023/04/29 03:31:15;;;;;;;1.52;1.27;;;;;;;6.00;84.35;148813.38;5102622;28;20035;-65
2023/04/29 03:33:41;;;;;;;1.23;1.13;;;;;;;5.93;84.67;148796.75;5096450;28;20072;-65
2023/04/29 03:36:07;;;;;;;1.15;1.05;;;;;;;5.89;83.50;148786.53;5102701;28;20043;-64
2023/04/29 03:38:33;;;;;;;1.90;1.10;;;;;;;5.81;83.99;148767.34;5102610;28;20262;-65
2023/04/29 03:40:59;;;;;;;2.58;1.10;;;;;;;5.74;84.72;148748.19;5083659;28;20297;-65
2023/04/29 03:43:25;;;;;;;2.15;1.60;;;;;;;5.69;84.04;148737.97;5082165;28;20043;-66
2023/04/29 03:45:51;;;;;;;1.00;1.00;;;;;;;5.61;83.79;148717.53;5094827;28;20047;-66
2023/04/29 03:48:18;;;;;;;2.13;1.10;;;;;;;5.56;83.54;148703.47;5079809;28;20032;-64
2023/04/29 03:50:44;;;;;;;0.93;0.90;;;;;;;5.58;83.96;148709.88;5082595;28;20119;-64
2023/04/29 03:53:11;;;;;;;1.02;0.93;;;;;;;5.46;83.48;148680.50;5067899;28;20216;-64
2023/04/29 03:55:36;;;;;;;1.20;0.90;;;;;;;5.58;84.63;148709.88;5086855;28;20035;-64
2023/04/29 03:58:02;;;;;;;1.58;0.90;;;;;;;5.59;84.60;148712.44;5093263;28;20055;-65
2023/04/29 04:00:30;;;;;;;1.05;1.00;;;;;;;5.49;84.61;148688.16;5084362;28;20024;-64
2023/04/29 04:02:56;;;;;;;1.25;1.10;;;;;;;5.48;83.62;148685.59;5102230;28;20028;-66
2023/04/29 04:05:24;;;;;;;1.70;1.20;;;;;;;5.19;84.44;148612.81;5102077;28;20424;-66
2023/04/29 04:07:51;;;;;;;1.13;1.02;;;;;;;5.32;84.94;148644.75;5102596;28;20032;-65
2023/04/29 04:10:17;;;;;;;1.25;1.15;;;;;;;5.25;84.22;148628.13;5102187;28;20047;-66
2023/04/29 04:12:43;;;;;;;1.17;1.13;;;;;;;5.34;84.33;148649.84;5094218;28;20073;-64
2023/04/29 04:15:09;;;;;;;1.13;1.08;;;;;;;5.39;84.22;148661.31;5085383;28;20016;-66
2023/04/29 04:17:34;;;;;;;1.50;1.10;;;;;;;5.39;84.33;148661.31;5102325;28;20028;-66
2023/04/29 04:20:00;;;;;;;1.80;1.15;;;;;;;5.42;83.64;148670.28;5083579;28;20067;-66
2023/04/29 04:22:26;;;;;;;1.40;1.15;;;;;;;5.22;84.70;148619.22;5096194;28;20038;-66
2023/04/29 04:24:54;;;;;;;1.17;1.10;;;;;;;5.07;84.84;148583.44;5093112;28;20289;-65
2023/04/29 04:27:19;;;;;;;1.80;1.20;;;;;;;5.26;84.25;148629.38;5086755;28;20055;-64
2023/04/29 04:29:45;;;;;;;0.95;0.95;;;;;;;5.41;84.49;148666.47;5102419;28;20297;-66
2023/04/29 04:32:11;;;;;;;1.33;1.10;;;;;;;5.43;84.03;148671.53;5102240;28;20381;-65
2023/04/29 04:34:38;;;;;;;1.95;1.13;;;;;;;5.48;84.68;148685.59;5086799;28;20039;-66
2023/04/29 04:37:05;;;;;;;1.30;1.20;;;;;;;5.55;84.24;148702.22;5082097;28;20050;-65
2023/04/29 04:39:31;;;;;;;1.33;1.02;;;;;;;5.53;84.15;148698.38;5082023;28;20020;-65
2023/04/29 04:41:56;;;;;;;1.17;1.08;;;;;;;5.47;85.18;148681.75;5083452;28;20090;-65
2023/04/29 04:44:22;;;;;;;1.40;1.02;;;;;;;5.45;85.64;148677.94;5102314;28;20342;-65
2023/04/29 04:46:49;;;;;;;2.22;1.27;;;;;;;5.34;85.29;148651.16;5104633;28;20036;-65
2023/04/29 04:49:15;;;;;;;1.25;1.15;;;;;;;5.50;84.59;148689.41;5093672;28;20024;-64
2023/04/29 04:51:44;;;;;;;1.50;1.10;;;;;;;5.44;84.15;148675.38;5093411;28;20054;-65
2023/04/29 04:54:09;;;;;;;1.50;1.40;;;;;;;5.54;85.38;148699.66;5102923;28;20028;-64
2023/04/29 04:56:36;;;;;;;2.10;1.45;;;;;;;5.51;85.00;148691.97;5085633;28;20292;-65
2023/04/29 04:59:02;;;;;;;4.47;1.80;;;;;;;5.44;85.14;148674.09;5104495;28;20039;-66
2023/04/29 05:01:28;;;;;;;2.00;1.38;;;;;;;5.49;85.48;148688.16;5105597;28;20042;-64
2023/04/29 05:03:54;;;;;;;3.25;2.22;;;;;;;5.40;85.39;148663.88;5096293;28;20032;-64
2023/04/29 05:06:20;;;;;;;2.40;1.70;;;;;;;5.50;85.17;148690.72;5090034;28;20041;-64
2023/04/29 05:08:45;;;;;;;2.67;1.73;;;;;;;5.48;85.08;148684.34;5105591;28;20073;-65
2023/04/29 05:11:16;;;;;;;2.90;1.92;;;;;;;5.39;84.52;148661.31;5105639;28;20072;-64
2023/04/29 05:13:41;;;;;;;2.97;2.05;;;;;;;5.29;85.42;148638.34;5089666;28;20190;-65
2023/04/29 05:16:07;;;;;;;4.22;2.30;;;;;;;5.36;86.17;148654.97;5096235;28;20023;-65
2023/04/29 05:18:33;;;;;;;3.13;2.42;;;;;;;5.45;87.24;148676.69;5099202;28;20032;-63
2023/04/29 05:20:59;;;;;;;2.50;2.08;;;;;;;5.68;86.20;148735.41;5086473;28;20036;-65
2023/04/29 05:23:25;;;;;;;2.58;2.10;;;;;;;5.63;87.05;148722.66;5105317;28;20032;-64
2023/04/29 05:25:51;;;;;;;2.97;1.80;;;;;;;5.61;86.27;148716.25;5088357;28;20092;-66
2023/04/29 05:28:16;;;;;;;2.63;2.10;;;;;;;5.79;85.95;148762.25;5079102;28;20020;-65
2023/04/29 05:30:42;;;;;;;4.15;2.00;;;;;;;5.85;85.96;148776.31;5105144;28;20031;-65
2023/04/29 05:33:08;;;;;;;5.82;2.28;;;;;;;5.92;85.88;148794.19;5105029;28;20028;-64
2023/04/29 05:35:33;;;;;;;3.38;2.20;;;;;;;5.80;86.80;148764.81;5105170;28;20239;-65
2023/04/29 05:37:59;;;;;;;2.50;2.28;;;;;;;5.83;85.98;148771.22;5105253;28;20028;-63
2023/04/29 05:40:24;;;;;;;2.63;2.42;;;;;;;5.84;84.56;148773.75;5110181;28;20094;-63
2023/04/29 05:42:50;;;;;;;4.22;2.13;;;;;;;5.88;83.68;148783.97;5111592;28;20028;-64
2023/04/29 05:45:16;;;;;;;2.92;2.22;;;;;;;5.88;84.75;148783.97;5111203;28;20031;-64
2023/04/29 05:47:42;;;;;;;2.70;2.22;;;;;;;5.77;83.92;148755.84;5067051;28;20409;-63
2023/04/29 05:50:07;;;;;;;3.17;2.00;;;;;;;5.87;84.33;148781.41;5090981;28;20090;-64
2023/04/29 05:52:33;;;;;;;2.60;2.05;;;;;;;5.92;84.66;148794.19;5096706;28;20032;-65
2023/04/29 05:54:59;;;;;;;2.30;2.05;;;;;;;6.07;84.52;148831.31;5097042;28;20035;-63
2023/04/29 05:57:24;;;;;;;4.45;2.25;;;;;;;6.16;84.73;148853.03;5098430;28;20212;-64
2023/04/29 05:59:50;;;;;;;3.70;2.35;;;;;;;6.22;84.57;148868.34;5088600;28;20211;-65
2023/04/29 06:02:15;;;;;;;2.83;2.20;;;;;;;6.13;84.60;148845.34;5086148;28;20074;-66
2023/04/29 06:04:41;;;;;;;4.88;2.35;;;;;;;6.21;84.32;148865.78;5083995;28;20093;-65
2023/04/29 06:07:08;;;;;;;3.25;1.90;;;;;;;6.25;84.38;148876.03;5092381;28;20055;-64
2023/04/29 06:09:35;;;;;;;2.28;2.05;;;;;;;5.97;83.66;148807.03;5104037;28;20371;-63
2023/04/29 06:12:01;;;;;;;2.38;2.00;;;;;;;6.19;83.98;148861.97;5104172;28;20205;-65
2023/04/29 06:14:27;;;;;;;2.65;2.00;;;;;;;6.22;83.75;148869.63;5103376;28;20020;-67
2023/04/29 06:16:53;;;;;;;2.22;2.03;;;;;;;6.20;83.19;148864.53;5103427;28;20023;-64
2023/04/29 06:19:18;;;;;;;3.10;2.03;;;;;;;6.20;82.10;148864.53;5103790;28;20016;-65
2023/04/29 06:21:44;;;;;;;4.20;1.92;;;;;;;6.29;82.11;148885.00;5104060;28;20205;-64
2023/04/29 06:24:09;;;;;;;3.20;2.17;;;;;;;6.32;81.40;148893.91;5093886;28;20016;-66
2023/04/29 06:26:35;;;;;;;4.03;2.22;;;;;;;6.39;82.17;148910.53;5103671;28;20089;-66
2023/04/29 06:29:01;;;;;;;3.35;2.20;;;;;;;6.47;83.04;148929.69;5103776;28;20315;-66
2023/04/29 06:31:27;;;;;;;2.80;1.52;;;;;;;6.44;82.13;148922.03;5103440;28;20042;-65
2023/04/29 06:33:52;;;;;;;2.58;1.77;;;;;;;6.49;81.19;148936.09;5097632;28;20169;-66
2023/04/29 06:36:18;;;;;;;3.05;2.00;;;;;;;6.47;81.88;148929.69;5083156;28;20133;-66
2023/04/29 06:38:43;;;;;;;2.83;1.90;;;;;;;6.59;81.51;148959.13;5083181;28;20225;-66
2023/04/29 06:41:09;;;;;;;2.88;2.28;;;;;;;6.65;82.82;148974.44;5100118;28;20039;-67
2023/04/29 06:43:35;;;;;;;3.35;2.25;;;;;;;6.71;83.55;148991.09;5091749;28;20024;-66
2023/04/29 06:46:01;;;;;;;2.67;2.33;;;;;;;6.81;81.51;149014.09;5097240;28;20024;-67
2023/04/29 06:48:26;;;;;;;2.55;2.25;;;;;;;6.91;81.67;149040.94;5101169;28;20091;-67
2023/04/29 06:50:54;;;;;;;2.28;2.10;;;;;;;6.98;80.51;149056.28;5083172;28;20028;-67
2023/04/29 06:53:20;;;;;;;1.98;1.70;;;;;;;7.08;80.15;149081.84;5083214;28;20340;-67
2023/04/29 06:55:46;;;;;;;2.63;2.00;;;;;;;7.10;79.62;149087.00;5103221;28;20074;-66
2023/04/29 06:58:13;;;;;;;2.40;2.08;;;;;;;7.13;79.70;149093.41;5094156;28;20217;-66
2023/04/29 07:00:39;;;;;;;2.80;1.90;;;;;;;7.12;81.38;149090.81;5068531;28;20078;-64
2023/04/29 07:03:04;;;;;;;2.15;2.05;;;;;;;7.21;79.73;149115.13;5085014;28;20327;-66
2023/04/29 07:05:30;;;;;;;2.20;1.90;;;;;;;7.31;78.52;149139.44;5102983;28;20231;-65
2023/04/29 07:07:56;;;;;;;3.15;2.60;;;;;;;7.31;78.95;149138.13;5087385;28;20040;-65
2023/04/29 07:10:22;;;;;;;4.55;2.60;;;;;;;7.31;78.59;149138.13;5081614;28;20043;-65
2023/04/29 07:12:47;;;;;;;2.40;2.20;;;;;;;7.50;79.43;149186.75;5086951;28;20320;-64
2023/04/29 07:15:13;;;;;;;5.38;3.25;;;;;;;7.54;79.25;149195.69;5111248;28;20035;-65
2023/04/29 07:17:38;;;;;;;3.88;2.60;;;;;;;7.55;77.29;149199.56;5103018;28;20028;-64
2023/04/29 07:20:05;;;;;;;3.00;2.67;;;;;;;7.51;77.07;149188.00;5102991;28;20020;-64
2023/04/29 07:22:31;;;;;;;3.03;2.70;;;;;;;7.70;78.35;149236.66;5102993;28;20095;-63
2023/04/29 07:24:56;;;;;;;2.97;2.60;;;;;;;7.81;75.96;149262.22;5096356;28;20020;-63
2023/04/29 07:27:23;;;;;;;3.90;2.60;;;;;;;7.69;76.55;149232.81;5083683;28;20344;-62
2023/04/29 07:29:49;;;;;;;3.15;2.80;;;;;;;7.88;76.13;149280.16;5102146;28;20024;-63
2023/04/29 07:32:15;;;;;;;3.03;2.58;;;;;;;7.92;76.81;149291.69;5085446;28;20023;-62
2023/04/29 07:34:40;;;;;;;4.03;2.97;;;;;;;8.12;76.21;149341.59;5092241;28;20028;-63
2023/04/29 07:37:06;;;;;;;3.78;2.80;;;;;;;8.25;76.35;149372.28;5094680;28;20033;-63
2023/04/29 07:39:32;;;;;;;2.90;2.70;;;;;;;8.36;75.81;149399.19;5067249;28;20125;-64
2023/04/29 07:41:58;;;;;;;3.30;2.92;;;;;;;8.35;75.33;149396.63;5101977;28;20109;-63
2023/04/29 07:44:24;;;;;;;2.67;2.47;;;;;;;8.40;75.13;149409.44;5084311;28;20051;-63
2023/04/29 07:46:50;;;;;;;2.97;2.58;;;;;;;8.53;73.93;149441.50;5084589;28;20066;-63
2023/04/29 07:49:15;;;;;;;2.80;2.30;;;;;;;8.43;73.69;149417.13;5093781;28;20059;-63
2023/04/29 07:51:42;;;;;;;2.40;2.00;;;;;;;8.40;72.32;149410.72;5086109;28;20024;-63
2023/04/29 07:54:08;;;;;;;3.42;2.70;;;;;;;8.16;73.27;149349.28;5102318;28;20024;-63
2023/04/29 07:56:34;;;;;;;2.70;2.20;;;;;;;8.33;72.78;149391.53;5082788;28;20035;-63
2023/04/29 07:59:00;;;;;;;2.40;2.20;;;;;;;8.25;73.54;149372.28;5097018;28;20083;-64
2023/04/29 08:01:27;;;;;;;5.65;2.78;;;;;;;8.29;74.67;149382.53;5092212;28;20333;-62
2023/04/29 08:03:53;;;;;;;5.13;2.80;;;;;;;8.51;74.19;149437.66;5087425;28;20328;-64
2023/04/29 08:06:21;;;;;;;4.22;3.25;;;;;;;8.54;76.10;149445.34;5101875;28;20092;-63
2023/04/29 08:08:47;;;;;;;2.60;2.40;;;;;;;8.76;73.66;149500.38;5082280;28;20040;-63
2023/04/29 08:11:20;;;;;;;3.00;2.47;;;;;;;9.01;73.76;149561.88;5098395;28;20024;-64
2023/04/29 08:13:46;;;;;;;4.43;2.85;;;;;;;9.18;73.38;149602.84;5089759;28;20021;-63
2023/04/29 08:16:12;;;;;;;3.03;2.35;;;;;;;9.23;70.34;149615.69;5089987;28;20213;-63
2023/04/29 08:18:39;;;;;;;2.53;2.30;;;;;;;9.48;70.92;149679.75;5098944;28;20501;-63
2023/04/29 08:21:05;;;;;;;3.90;2.58;;;;;;;9.23;69.41;149615.69;5085253;28;20035;-63
2023/04/29 08:23:31;;;;;;;3.20;2.65;;;;;;;9.44;71.13;149668.22;5105191;28;20111;-62
2023/04/29 08:25:57;;;;;;;3.13;2.40;;;;;;;9.57;68.38;149701.50;5106503;28;20020;-62
2023/04/29 08:28:23;;;;;;;3.85;2.50;;;;;;;9.49;70.89;149681.00;5097008;28;20031;-63
2023/04/29 08:30:49;;;;;;;3.45;2.80;;;;;;;9.38;71.82;149654.13;5090730;28;20036;-62
2023/04/29 08:33:15;;;;;;;4.78;2.85;;;;;;;9.33;71.62;149641.28;5106295;28;20028;-62
2023/04/29 08:35:41;;;;;;;3.25;2.50;;;;;;;9.30;69.15;149633.63;5106106;28;20051;-62
2023/04/29 08:38:08;;;;;;;3.55;2.90;;;;;;;9.10;70.81;149583.66;5105378;28;20051;-63
2023/04/29 08:40:35;;;;;;;4.63;2.67;;;;;;;9.32;68.80;149638.75;5094565;28;20047;-64
2023/04/29 08:43:03;;;;;;;3.08;2.40;;;;;;;9.65;71.84;149722.03;5103996;28;20020;-63
2023/04/29 08:45:28;;;;;;;3.10;2.60;;;;;;;9.65;68.11;149720.75;5105894;28;20039;-63
2023/04/29 08:47:56;;;;;;;2.47;2.20;;;;;;;10.02;66.12;149813.03;5106173;28;20023;-63
2023/04/29 08:50:23;;;;;;;3.55;2.67;;;;;;;9.99;68.07;149806.63;5088552;28;20020;-64
2023/04/29 08:52:50;;;;;;;4.18;2.42;;;;;;;10.16;64.00;149847.63;5098295;28;20036;-63
2023/04/29 08:55:17;;;;;;;3.65;3.05;;;;;;;10.11;65.55;149836.09;5097459;28;20118;-64
2023/04/29 08:57:44;;;;;;;4.03;2.60;;;;;;;10.05;65.50;149820.72;5088932;28;20328;-63
2023/04/29 09:00:12;;;;;;;2.45;2.25;;;;;;;10.09;66.14;149829.69;5105839;28;20024;-63
2023/04/29 09:02:46;;;;;;;4.43;2.92;;;;;;;10.39;65.70;149905.41;5086005;28;20187;-64
2023/04/29 09:05:12;;;;;;;2.80;2.22;;;;;;;10.26;63.41;149873.31;5101283;28;20048;-64
2023/04/29 09:07:38;;;;;;;2.35;2.15;;;;;;;10.34;64.10;149892.56;5094472;28;20044;-65
2023/04/29 09:10:05;;;;;;;4.30;2.80;;;;;;;10.28;65.04;149877.16;5091734;28;20024;-64
2023/04/29 09:12:31;;;;;;;3.90;2.67;;;;;;;10.27;64.76;149874.56;5103831;28;20074;-64
2023/04/29 09:14:56;;;;;;;3.45;2.35;;;;;;;10.35;64.95;149895.13;5085203;28;20016;-64
2023/04/29 09:17:46;;;;;;;4.07;2.40;;;;;;;10.31;63.87;149884.81;5102222;28;20032;-64
2023/04/29 09:20:20;;;;;;;4.85;2.70;;;;;;;10.64;64.43;149966.94;5092666;28;20103;-64
2023/04/29 09:22:51;;;;;;;3.92;2.60;;;;;;;10.73;63.62;149990.06;5105478;28;20422;-64
2023/04/29 09:25:17;;;;;;;3.50;2.80;;;;;;;11.01;62.54;150059.28;5097147;28;20048;-66
2023/04/29 09:27:43;;;;;;;5.65;2.90;;;;;;;11.13;61.18;150088.78;5088325;28;20069;-64
2023/04/29 09:30:11;;;;;;;2.40;2.20;;;;;;;11.01;59.72;150060.56;5105203;28;20024;-65
2023/04/29 09:32:37;;;;;;;5.43;2.63;;;;;;;10.99;59.73;150054.19;5099091;28;20023;-64
2023/04/29 09:35:32;;;;;;;4.43;2.55;;;;;;;11.06;59.63;150072.13;5090974;28;20201;-64
2023/04/29 09:38:14;;;;;;;5.40;2.08;;;;;;;10.76;58.69;149997.75;5067492;28;20040;-64
2023/04/29 09:40:40;;;;;;;;;;;;;;;10.98;56.61;150052.88;5096566;28;20070;-65
2023/04/29 09:43:15;;;;;;;5.00;2.03;;;;;;;11.29;59.63;150128.59;5104881;28;20204;-63
2023/04/29 09:45:43;;;;;;;2.45;1.90;;;;;;;11.15;56.19;150093.94;5105038;28;20095;-64
2023/04/29 09:48:10;;;;;;;6.15;2.20;;;;;;;11.17;56.73;150100.38;5086828;28;20357;-65
2023/04/29 09:50:37;;;;;;;2.35;1.83;;;;;;;11.18;54.18;150101.63;5086098;28;20044;-66
2023/04/29 09:53:04;;;;;;;3.85;2.00;;;;;;;11.24;53.34;150117.00;5098901;28;20096;-65
2023/04/29 09:55:30;;;;;;;3.55;1.75;;;;;;;11.22;51.59;150113.16;5095094;28;20089;-65
2023/04/29 09:57:57;;;;;;;2.60;1.55;;;;;;;11.39;53.18;150155.53;5089377;28;20040;-65
2023/04/29 10:00:24;;;;;;;4.82;1.95;;;;;;;11.47;55.67;150173.47;5104598;28;20028;-65
2023/04/29 10:02:52;;;;;;;3.55;1.70;;;;;;;11.74;55.48;150242.81;5066617;28;20067;-64
2023/04/29 10:05:18;;;;;;;4.28;2.13;;;;;;;11.82;54.70;150260.78;5100664;28;20054;-64
2023/04/29 10:07:47;;;;;;;3.17;1.90;;;;;;;11.86;53.44;150271.06;5093063;28;20032;-65
2023/04/29 10:10:13;;;;;;;4.75;2.20;;;;;;;11.69;52.90;150229.97;5091116;28;20043;-65
2023/04/29 10:12:40;;;;;;;3.40;1.70;;;;;;;11.43;52.89;150163.22;5102199;28;20201;-66
2023/04/29 10:15:28;;;;;;;4.32;2.15;;;;;;;11.44;56.56;150167.06;5084300;28;20024;-65
2023/04/29 10:18:01;;;;;;;4.78;1.98;;;;;;;11.40;53.30;150158.09;5084175;28;20523;-65
2023/04/29 10:20:28;;;;;;;3.40;1.90;;;;;;;11.38;51.40;150152.94;5101236;28;20056;-65
2023/04/29 10:22:55;;;;;;;4.47;1.98;;;;;;;11.50;50.21;150182.50;5104088;28;20055;-65
2023/04/29 10:25:22;;;;;;;5.50;2.28;;;;;;;11.80;52.08;150255.63;5096049;28;20132;-65
2023/04/29 10:27:51;;;;;;;3.22;1.73;;;;;;;11.72;51.33;150236.38;5087057;28;20243;-65
2023/04/29 10:30:18;;;;;;;2.22;1.80;;;;;;;11.74;48.89;150241.50;5104080;28;20035;-65
2023/04/29 10:32:44;;;;;;;2.15;1.88;;;;;;;11.82;51.09;150262.03;5099045;28;20130;-65
2023/04/29 10:35:13;;;;;;;2.85;1.80;;;;;;;11.91;50.56;150283.88;5103868;28;20031;-64
2023/04/29 10:37:39;;;;;;;3.10;1.95;;;;;;;11.66;48.96;150221.00;5093712;28;20035;-65
2023/04/29 10:40:17;;;;;;;3.42;2.00;;;;;;;11.51;48.66;150185.03;5071247;28;20020;-65
2023/04/29 10:42:48;;;;;;;5.22;1.95;;;;;;;11.67;50.94;150223.53;5103323;28;20099;-65
2023/04/29 10:45:23;;;;;;;3.47;2.00;;;;;;;11.79;50.74;150253.09;5103199;28;20020;-64
2023/04/29 10:48:01;;;;;;;2.28;1.80;;;;;;;11.64;48.62;150215.84;5083759;28;20456;-65
2023/04/29 10:50:36;;;;;;;3.85;2.28;;;;;;;11.60;49.81;150206.88;5065558;28;20037;-64
2023/04/29 10:53:03;;;;;;;1.90;1.80;;;;;;;11.62;48.91;150210.72;5096950;28;20024;-64
2023/04/29 10:55:29;;;;;;;4.30;1.90;;;;;;;11.62;50.77;150210.72;5094587;28;20344;-64
2023/04/29 10:57:58;;;;;;;2.85;1.88;;;;;;;11.71;50.51;150235.13;5087681;28;20078;-64
2023/04/29 11:00:30;;;;;;;4.75;1.88;;;;;;;11.73;49.96;150238.97;5103484;28;20032;-64
2023/04/29 11:02:57;;;;;;;3.50;2.22;;;;;;;11.80;51.53;150256.94;5083285;28;20261;-64
2023/04/29 11:05:34;;;;;;;4.63;2.08;;;;;;;11.70;51.78;150231.22;5099042;28;20115;-64
2023/04/29 11:08:11;;;;;;;4.07;1.60;;;;;;;11.77;50.08;150247.94;5090301;28;20032;-64
2023/04/29 11:10:40;;;;;;;3.67;2.20;;;;;;;11.80;52.67;150256.94;5092834;28;20035;-64
2023/04/29 11:13:26;;;;;;;31.08;18.20;;;;;;;11.70;51.77;150231.22;5097665;28;20024;-64
2023/04/29 11:16:06;;;;;;;4.60;3.30;;;;;;;11.74;50.62;150242.81;5086332;28;20028;-65
2023/04/29 11:18:33;;;;;;;2.67;2.15;;;;;;;11.72;51.20;150236.38;5102979;28;20042;-65
2023/04/29 11:21:05;;;;;;;3.40;2.42;;;;;;;11.66;49.55;150221.00;5103062;28;20059;-64
2023/04/29 11:23:35;;;;;;;2.55;1.98;;;;;;;11.67;50.96;150224.84;5103160;28;20058;-63
2023/04/29 11:26:01;;;;;;;4.13;1.85;;;;;;;11.68;51.14;150227.38;5090151;28;20044;-65
2023/04/29 11:28:27;;;;;;;3.75;1.95;;;;;;;11.79;52.04;150254.34;5090674;28;20043;-64
2023/04/29 11:30:53;;;;;;;4.43;3.20;;;;;;;11.86;51.41;150271.06;5099387;28;20099;-64
2023/04/29 11:33:26;;;;;;;6.18;4.20;;;;;;;11.74;50.95;150241.50;5102245;28;20153;-65